createdAt,value
2022-10-13T00:03:24.410Z,20.50
2022-10-13T00:08:30.240Z,20.50
2022-10-13T00:13:33.279Z,20.50
2022-10-13T00:18:36.387Z,20.50
2022-10-13T00:23:41.735Z,20.50
2022-10-13T00:28:49.727Z,20.50
2022-10-13T00:33:55.723Z,20.50
2022-10-13T00:39:00.391Z,20.50
2022-10-13T00:44:04.715Z,20.50
2022-10-13T00:49:10.769Z,20.50
2022-10-13T00:54:19.364Z,20.50
2022-10-13T00:59:26.634Z,20.50
2022-10-13T01:04:34.203Z,20.50
2022-10-13T01:09:38.681Z,20.50
2022-10-13T01:14:51.095Z,20.50
2022-10-13T01:20:31.541Z,20.50
2022-10-13T01:25:57.931Z,20.50
2022-10-13T01:31:07.528Z,20.50
2022-10-13T01:36:19.504Z,20.50
2022-10-13T01:41:30.632Z,20.50
2022-10-13T01:46:37.467Z,20.50
2022-10-13T01:51:42.130Z,20.50
2022-10-13T01:56:53.271Z,20.50
2022-10-13T02:02:06.384Z,20.50
2022-10-13T02:07:16.705Z,20.50
2022-10-13T02:12:26.613Z,20.50
2022-10-13T02:17:32.782Z,20.50
2022-10-13T02:22:41.560Z,20.50
2022-10-13T02:27:44.817Z,20.50
2022-10-13T02:32:49.238Z,20.50
2022-10-13T02:37:52.317Z,20.50
2022-10-13T02:42:55.367Z,20.50
2022-10-13T02:47:59.825Z,20.50
2022-10-13T02:53:02.969Z,20.50
2022-10-13T02:58:06.161Z,20.50
2022-10-13T03:03:12.181Z,20.50
2022-10-13T03:08:15.393Z,20.50
2022-10-13T03:13:18.431Z,20.50
2022-10-13T03:18:22.896Z,20.50
2022-10-13T03:23:26.041Z,20.50
2022-10-13T03:28:29.154Z,20.50
2022-10-13T03:33:34.011Z,20.50
2022-10-13T03:38:37.524Z,20.50
2022-10-13T03:43:41.224Z,20.50
2022-10-13T03:48:45.963Z,20.50
2022-10-13T03:53:50.674Z,20.50
2022-10-13T03:58:55.466Z,20.50
2022-10-13T04:04:02.210Z,20.50
2022-10-13T04:09:05.582Z,20.50
2022-10-13T04:14:08.619Z,20.50
2022-10-13T04:19:15.263Z,20.50
2022-10-13T04:24:18.780Z,20.50
2022-10-13T04:29:21.925Z,20.50
2022-10-13T04:34:26.382Z,20.50
2022-10-13T04:39:29.467Z,20.50
2022-10-13T04:44:32.535Z,20.40
2022-10-13T04:49:37.291Z,20.50
2022-10-13T04:54:40.407Z,20.50
2022-10-13T04:59:43.423Z,20.50
2022-10-13T05:04:48.032Z,20.50
2022-10-13T05:09:52.475Z,20.40
2022-10-13T05:14:55.631Z,20.50
2022-10-13T05:20:00.008Z,20.50
2022-10-13T05:25:03.103Z,20.50
2022-10-13T05:30:06.866Z,20.50
2022-10-13T05:35:12.345Z,20.50
2022-10-13T05:40:15.500Z,20.50
2022-10-13T05:45:19.441Z,20.50
2022-10-13T05:50:24.007Z,20.50
2022-10-13T05:55:27.136Z,20.50
2022-10-13T06:00:30.298Z,20.50
2022-10-13T06:05:35.059Z,20.50
2022-10-13T06:10:38.852Z,20.50
2022-10-13T06:15:41.880Z,20.50
2022-10-13T06:20:46.240Z,20.50
2022-10-13T06:25:49.655Z,20.50
2022-10-13T06:30:56.733Z,20.50
2022-10-13T06:36:04.365Z,20.50
2022-10-13T06:41:07.884Z,20.50
2022-10-13T06:46:11.816Z,20.50
2022-10-13T06:51:16.240Z,20.50
2022-10-13T06:56:19.289Z,20.50
2022-10-13T07:01:22.529Z,20.50
2022-10-13T07:06:26.962Z,20.50
2022-10-13T07:11:30.175Z,20.50
2022-10-13T07:16:33.361Z,20.50
2022-10-13T07:21:38.100Z,20.50
2022-10-13T07:26:41.212Z,20.50
2022-10-13T07:31:44.787Z,20.50
2022-10-13T07:36:49.235Z,20.50
2022-10-13T07:41:52.265Z,20.50
2022-10-13T07:46:55.312Z,20.50
2022-10-13T07:51:59.751Z,20.50
2022-10-13T07:57:03.229Z,20.50
2022-10-13T08:02:06.244Z,20.50
2022-10-13T08:07:11.526Z,20.50
2022-10-13T08:12:14.565Z,20.60
2022-10-13T08:17:17.934Z,20.60
2022-10-13T08:22:27.293Z,20.60
2022-10-13T08:27:49.758Z,20.60
2022-10-13T08:32:54.181Z,20.60
2022-10-13T08:37:58.643Z,20.60
2022-10-13T08:43:01.750Z,20.70
2022-10-13T08:48:07.472Z,20.80
2022-10-13T08:53:22.255Z,20.80
2022-10-13T08:58:28.076Z,20.90
2022-10-13T09:03:31.658Z,20.90
2022-10-13T09:08:41.810Z,20.90
2022-10-13T09:13:44.892Z,20.90
2022-10-13T09:18:47.961Z,20.90
2022-10-13T09:23:54.094Z,20.90
2022-10-13T09:28:57.170Z,21.00
2022-10-13T09:34:01.907Z,21.00
2022-10-13T09:39:14.651Z,21.00
2022-10-13T09:44:20.079Z,21.10
2022-10-13T09:49:34.693Z,21.20
2022-10-13T09:54:46.723Z,21.20
2022-10-13T09:59:52.041Z,21.20
2022-10-13T10:04:58.127Z,21.20
2022-10-13T10:10:06.370Z,21.30
2022-10-13T10:15:21.008Z,21.20
2022-10-13T10:20:42.132Z,21.20
2022-10-13T10:25:50.885Z,21.20
2022-10-13T10:31:02.664Z,21.20
2022-10-13T10:36:16.844Z,21.20
2022-10-13T10:41:39.712Z,21.20
2022-10-13T10:46:46.720Z,21.10
2022-10-13T10:51:50.351Z,21.10
2022-10-13T10:56:59.559Z,21.10
2022-10-13T11:02:15.943Z,21.10
2022-10-13T11:07:52.018Z,21.10
2022-10-13T11:13:22.002Z,21.10
2022-10-13T11:19:05.947Z,21.20
2022-10-13T11:24:49.265Z,21.20
2022-10-13T11:29:56.799Z,21.20
2022-10-13T11:35:01.568Z,21.20
2022-10-13T11:40:23.095Z,21.20
2022-10-13T11:45:55.455Z,21.30
2022-10-13T11:51:16.244Z,21.30
2022-10-13T11:56:22.495Z,21.30
2022-10-13T12:01:26.948Z,21.30
2022-10-13T12:06:37.007Z,21.30
2022-10-13T12:11:40.837Z,21.30
2022-10-13T12:22:01.394Z,21.30
2022-10-13T12:27:12.140Z,21.30
2022-10-13T12:32:22.103Z,21.30
2022-10-13T12:37:31.018Z,21.30
2022-10-13T12:42:36.639Z,21.30
2022-10-13T12:47:49.436Z,21.30
2022-10-13T12:52:55.048Z,21.30
2022-10-13T12:57:58.313Z,21.30
2022-10-13T13:03:04.671Z,21.30
2022-10-13T13:08:24.829Z,21.30
2022-10-13T13:13:28.904Z,21.30
2022-10-13T13:18:37.995Z,21.30
2022-10-13T13:23:41.601Z,21.40
2022-10-13T13:28:47.336Z,21.30
2022-10-13T13:33:51.874Z,21.30
2022-10-13T13:38:55.595Z,21.30
2022-10-13T13:43:58.864Z,21.30
2022-10-13T13:49:03.403Z,21.30
2022-10-13T13:54:06.869Z,21.40
2022-10-13T13:59:09.867Z,21.30
2022-10-13T14:04:14.264Z,21.30
2022-10-13T14:09:17.913Z,21.40
2022-10-13T14:14:20.975Z,21.30
2022-10-13T14:19:25.444Z,21.30
2022-10-13T14:24:28.848Z,21.30
2022-10-13T14:29:31.827Z,21.30
2022-10-13T14:34:36.158Z,21.30
2022-10-13T14:39:39.172Z,21.20
2022-10-13T14:44:42.127Z,21.30
2022-10-13T14:49:46.447Z,21.20
2022-10-13T14:54:49.411Z,21.20
2022-10-13T14:59:52.422Z,21.20
2022-10-13T15:04:57.871Z,21.20
2022-10-13T15:10:05.330Z,21.20
2022-10-13T15:15:10.233Z,21.20
2022-10-13T15:20:14.758Z,21.20
2022-10-13T15:25:17.892Z,21.10
2022-10-13T15:30:20.891Z,21.10
2022-10-13T15:35:25.240Z,21.10
2022-10-13T15:40:28.282Z,21.10
2022-10-13T15:45:31.223Z,21.10
2022-10-13T15:50:35.604Z,21.10
2022-10-13T15:55:39.002Z,21.10
2022-10-13T16:00:42.614Z,21.10
2022-10-13T16:05:47.622Z,21.10
2022-10-13T16:10:50.607Z,21.00
2022-10-13T16:16:00.521Z,21.10
2022-10-13T16:21:14.510Z,21.00
2022-10-13T16:26:21.362Z,21.00
2022-10-13T16:31:24.527Z,21.00
2022-10-13T16:36:28.917Z,21.00
2022-10-13T16:41:31.887Z,21.00
2022-10-13T16:46:34.946Z,21.00
2022-10-13T16:51:39.398Z,21.00
2022-10-13T16:56:42.568Z,21.00
2022-10-13T17:01:46.432Z,21.00
2022-10-13T17:06:50.795Z,21.00
2022-10-13T17:11:53.772Z,21.00
2022-10-13T17:16:57.974Z,20.90
2022-10-13T17:22:02.615Z,21.00
2022-10-13T17:27:05.618Z,20.90
2022-10-13T17:32:08.672Z,20.90
2022-10-13T17:37:12.999Z,20.90
2022-10-13T17:42:16.008Z,20.90
2022-10-13T17:47:19.294Z,20.90
2022-10-13T17:52:23.948Z,20.80
2022-10-13T17:57:26.948Z,20.90
2022-10-13T18:02:29.897Z,20.80
2022-10-13T18:07:34.416Z,20.80
2022-10-13T18:12:37.504Z,20.80
2022-10-13T18:17:40.447Z,20.80
2022-10-13T18:22:44.795Z,20.80
2022-10-13T18:27:47.765Z,20.80
2022-10-13T18:32:50.734Z,20.80
2022-10-13T18:37:55.081Z,20.80
2022-10-13T18:42:58.060Z,20.80
2022-10-13T18:48:01.024Z,20.80
2022-10-13T18:53:05.419Z,20.80
2022-10-13T18:58:08.368Z,20.80
2022-10-13T19:03:13.203Z,20.80
2022-10-13T19:08:17.515Z,20.80
2022-10-13T19:13:20.491Z,20.80
2022-10-13T19:18:23.477Z,20.80
2022-10-13T19:23:27.929Z,20.80
2022-10-13T19:28:30.944Z,20.80
2022-10-13T19:33:34.013Z,20.80
2022-10-13T19:38:38.991Z,20.80
2022-10-13T19:43:41.959Z,20.80
2022-10-13T19:48:45.395Z,20.80
2022-10-13T19:53:49.888Z,20.80
2022-10-13T19:58:53.454Z,20.80
2022-10-13T20:03:56.725Z,20.70
2022-10-13T20:09:01.081Z,20.60
2022-10-13T20:14:04.088Z,20.70
2022-10-13T20:19:07.567Z,20.70
2022-10-13T20:24:11.998Z,20.70
2022-10-13T20:29:14.960Z,20.70
2022-10-13T20:34:17.956Z,20.70
2022-10-13T20:39:22.330Z,20.70
2022-10-13T20:44:25.334Z,20.70
2022-10-13T20:49:28.298Z,20.70
2022-10-13T20:54:32.628Z,20.70
2022-10-13T20:59:35.619Z,20.70
2022-10-13T21:04:38.647Z,20.70
2022-10-13T21:09:42.948Z,20.70
2022-10-13T21:14:45.921Z,20.70
2022-10-13T21:19:48.898Z,20.70
2022-10-13T21:24:53.263Z,20.70
2022-10-13T21:29:56.234Z,20.70
2022-10-13T21:34:59.207Z,20.70
2022-10-13T21:40:04.215Z,20.70
2022-10-13T21:45:08.187Z,20.70
2022-10-13T21:50:11.489Z,20.70
2022-10-13T21:55:16.006Z,20.70
2022-10-13T22:00:19.274Z,20.70
2022-10-13T22:05:22.247Z,20.70
2022-10-13T22:10:26.555Z,20.70
2022-10-13T22:15:29.528Z,20.70
2022-10-13T22:20:36.799Z,20.70
2022-10-13T22:25:45.806Z,20.70
2022-10-13T22:30:49.143Z,20.60
2022-10-13T22:35:52.163Z,20.70
2022-10-13T22:40:56.482Z,20.70
2022-10-13T22:46:00.531Z,20.70
2022-10-13T22:51:04.617Z,20.70
2022-10-13T22:56:10.818Z,20.70
2022-10-13T23:01:15.190Z,20.60
2022-10-13T23:06:20.759Z,20.70
2022-10-13T23:11:25.317Z,20.70
2022-10-13T23:16:28.599Z,20.70
2022-10-13T23:21:32.681Z,20.70
2022-10-13T23:26:37.161Z,20.70
2022-10-13T23:31:40.119Z,20.70
2022-10-13T23:36:43.086Z,20.60
2022-10-13T23:41:47.419Z,20.60
2022-10-13T23:46:50.362Z,20.70
2022-10-13T23:51:53.343Z,20.70
2022-10-13T23:56:57.926Z,20.60
